Time;durP1;ratioP1;P1;durP2;ratioP2;P2;SDS_P1;SDS_P2;PMS_P1;PMS_P2;Temp;Humidity;BMP_temperature;BMP_pressure;BME280_temperature;BME280_humidity;BME280_pressure;Samples;Min_cycle;Max_cycle;Signal;HPM_P1;HPM_P2
2022/01/08 00:00:52;;;;;;;12.30;3.35;;;;;;;;;;5078484;28;20139;-62
2022/01/08 00:03:18;;;;;;;10.65;3.03;;;;;;;;;;5097317;28;20075;-63
2022/01/08 00:05:44;;;;;;;10.35;2.70;;;;;;;;;;5074098;28;20075;-63
2022/01/08 00:08:10;;;;;;;8.40;2.88;;;;;;;;;;5072465;28;20318;-62
2022/01/08 00:10:36;;;;;;;11.93;2.78;;;;;;;;;;5095910;28;20035;-63
2022/01/08 00:13:05;;;;;;;9.13;2.92;;;;;;;;;;5093355;28;20066;-62
2022/01/08 00:15:32;;;;;;;10.32;2.97;;;;;;;;;;5098956;28;20130;-62
2022/01/08 00:17:58;;;;;;;9.25;3.22;;;;;;;;;;5078294;28;20123;-61
2022/01/08 00:20:24;;;;;;;12.07;3.28;;;;;;;;;;5073686;28;20131;-60
2022/01/08 00:22:52;;;;;;;12.05;2.78;;;;;;;;;;5083067;28;20059;-61
2022/01/08 00:25:19;;;;;;;10.05;2.90;;;;;;;;;;5081726;28;20054;-62
2022/01/08 00:27:45;;;;;;;16.38;3.30;;;;;;;;;;5075871;28;20501;-60
2022/01/08 00:30:13;;;;;;;13.48;3.60;;;;;;;;;;5096030;28;20058;-62
2022/01/08 00:32:39;;;;;;;6.32;2.72;;;;;;;;;;5095662;28;20036;-63
2022/01/08 00:35:06;;;;;;;10.73;3.58;;;;;;;;;;5076393;28;20040;-63
2022/01/08 00:37:34;;;;;;;8.98;2.95;;;;;;;;;;5074874;28;20032;-61
2022/01/08 00:40:00;;;;;;;10.57;2.95;;;;;;;;;;5094234;28;20110;-63
2022/01/08 00:42:27;;;;;;;7.32;2.50;;;;;;;;;;5075819;28;20224;-63
2022/01/08 00:44:53;;;;;;;10.00;3.10;;;;;;;;;;5062452;28;20050;-62
2022/01/08 00:47:19;;;;;;;8.43;2.58;;;;;;;;;;5100351;28;20036;-62
2022/01/08 00:49:45;;;;;;;10.65;3.38;;;;;;;;;;5077008;28;20040;-61
2022/01/08 00:52:11;;;;;;;10.50;3.70;;;;;;;;;;5061026;28;20052;-61
2022/01/08 00:54:38;;;;;;;9.73;2.83;;;;;;;;;;5083276;28;20040;-61
2022/01/08 00:57:04;;;;;;;11.85;3.47;;;;;;;;;;5083259;28;20044;-60
2022/01/08 00:59:31;;;;;;;11.27;3.15;;;;;;;;;;5078770;28;20043;-61
2022/01/08 01:01:57;;;;;;;12.23;3.10;;;;;;;;;;5079895;28;20040;-62
2022/01/08 01:04:23;;;;;;;14.40;3.47;;;;;;;;;;5064058;28;20118;-61
2022/01/08 01:06:49;;;;;;;16.75;4.07;;;;;;;;;;5064491;28;20097;-62
2022/01/08 01:09:15;;;;;;;7.95;2.50;;;;;;;;;;5082599;28;20132;-62
2022/01/08 01:11:42;;;;;;;12.10;3.13;;;;;;;;;;5069134;28;20050;-62
2022/01/08 01:14:08;;;;;;;9.52;2.42;;;;;;;;;;5079973;28;20140;-61
2022/01/08 01:16:34;;;;;;;11.85;3.00;;;;;;;;;;5083209;28;20292;-60
2022/01/08 01:19:02;;;;;;;6.20;2.10;;;;;;;;;;5077284;28;20054;-62
2022/01/08 01:21:28;;;;;;;13.80;3.28;;;;;;;;;;5100628;28;20043;-63
2022/01/08 01:23:55;;;;;;;9.82;2.60;;;;;;;;;;5079099;28;20051;-61
2022/01/08 01:26:25;;;;;;;10.70;2.67;;;;;;;;;;5076877;28;20043;-63
2022/01/08 01:29:11;;;;;;;9.15;2.47;;;;;;;;;;5080480;28;20098;-63
2022/01/08 01:43:16;;;;;;;13.20;3.15;;;;;;;;;;5078992;28;20131;-63
2022/01/08 01:48:26;;;;;;;14.18;3.95;;;;;;;;;;5080654;28;20035;-62
2022/01/08 01:50:52;;;;;;;10.30;3.28;;;;;;;;;;5083356;28;20063;-63
2022/01/08 01:53:18;;;;;;;12.13;4.18;;;;;;;;;;5079972;28;20378;-62
2022/01/08 01:55:48;;;;;;;13.23;4.38;;;;;;;;;;5105169;28;20044;-62
2022/01/08 01:58:14;;;;;;;12.20;4.68;;;;;;;;;;5101222;28;20143;-63
2022/01/08 02:00:40;;;;;;;9.13;3.80;;;;;;;;;;5068173;28;20565;-62
2022/01/08 02:03:06;;;;;;;14.45;5.32;;;;;;;;;;5077713;28;20402;-63
2022/01/08 02:05:32;;;;;;;9.98;4.80;;;;;;;;;;5094087;28;20096;-63
2022/01/08 02:07:59;;;;;;;12.82;4.90;;;;;;;;;;5093930;28;20108;-62
2022/01/08 02:10:25;;;;;;;9.30;4.50;;;;;;;;;;5080114;28;20087;-62
2022/01/08 02:12:51;;;;;;;12.45;5.40;;;;;;;;;;5096562;28;20520;-62
2022/01/08 02:15:17;;;;;;;10.68;4.50;;;;;;;;;;5103996;28;20042;-62
2022/01/08 02:17:43;;;;;;;8.68;4.75;;;;;;;;;;5100238;28;20083;-63
2022/01/08 02:20:10;;;;;;;12.90;5.68;;;;;;;;;;5065941;28;20085;-62
2022/01/08 02:22:36;;;;;;;15.07;4.35;;;;;;;;;;5074491;28;20089;-61
2022/01/08 02:25:03;;;;;;;14.38;5.40;;;;;;;;;;5095599;28;20476;-61
2022/01/08 02:27:29;;;;;;;12.23;5.32;;;;;;;;;;5093000;28;20047;-62
2022/01/08 02:29:55;;;;;;;11.38;4.90;;;;;;;;;;5065496;28;20047;-63
2022/01/08 02:32:28;;;;;;;10.68;3.97;;;;;;;;;;5080496;28;20115;-62
2022/01/08 02:34:54;;;;;;;;;;;;;;;;;;5095764;28;20044;-63
2022/01/08 02:37:29;;;;;;;14.85;5.10;;;;;;;;;;5079545;28;19923;-63
2022/01/08 02:39:55;;;;;;;12.13;5.15;;;;;;;;;;5080964;28;20241;-63
2022/01/08 02:42:24;;;;;;;12.07;5.13;;;;;;;;;;5079466;28;20075;-62
2022/01/08 02:44:50;;;;;;;12.60;6.05;;;;;;;;;;5080206;28;20047;-61
2022/01/08 02:47:18;;;;;;;16.10;4.82;;;;;;;;;;5095721;28;20381;-62
2022/01/08 02:49:44;;;;;;;11.52;5.30;;;;;;;;;;5081445;28;20036;-64
2022/01/08 02:52:11;;;;;;;11.27;5.63;;;;;;;;;;5094312;28;20524;-63
2022/01/08 02:54:37;;;;;;;9.65;4.32;;;;;;;;;;5077038;28;20028;-63
2022/01/08 02:57:03;;;;;;;8.65;5.35;;;;;;;;;;5073600;28;20290;-62
2022/01/08 02:59:30;;;;;;;10.48;4.72;;;;;;;;;;5060577;28;20040;-63
2022/01/08 03:01:56;;;;;;;12.27;5.35;;;;;;;;;;5075769;28;20055;-60
2022/01/08 03:04:22;;;;;;;13.60;4.80;;;;;;;;;;5076178;28;20175;-63
2022/01/08 03:06:49;;;;;;;10.73;5.40;;;;;;;;;;5102009;28;20488;-61
2022/01/08 03:09:15;;;;;;;11.40;4.90;;;;;;;;;;5091968;28;20032;-61
2022/01/08 03:11:43;;;;;;;12.45;5.25;;;;;;;;;;5077966;28;20032;-61
2022/01/08 03:14:09;;;;;;;11.75;4.47;;;;;;;;;;5062921;28;20550;-61
2022/01/08 03:16:35;;;;;;;13.13;4.53;;;;;;;;;;5102910;28;20055;-61
2022/01/08 03:19:10;;;;;;;8.05;4.18;;;;;;;;;;5095650;28;20190;-62
2022/01/08 03:21:38;;;;;;;9.88;3.78;;;;;;;;;;5102036;28;20359;-61
2022/01/08 03:24:07;;;;;;;10.35;4.28;;;;;;;;;;5093737;28;20536;-61
2022/01/08 03:26:33;;;;;;;9.07;4.40;;;;;;;;;;5097708;28;20523;-62
2022/01/08 03:28:59;;;;;;;10.15;4.82;;;;;;;;;;5076266;28;20485;-62
2022/01/08 03:31:26;;;;;;;9.38;4.68;;;;;;;;;;5094547;28;20032;-62
2022/01/08 03:33:53;;;;;;;11.13;4.50;;;;;;;;;;5081014;28;20042;-62
2022/01/08 03:36:21;;;;;;;10.50;4.82;;;;;;;;;;5063105;28;20038;-63
2022/01/08 03:38:47;;;;;;;13.00;4.47;;;;;;;;;;5075119;28;20447;-62
2022/01/08 03:41:13;;;;;;;10.43;4.93;;;;;;;;;;5057152;28;20101;-62
2022/01/08 03:43:39;;;;;;;9.77;4.72;;;;;;;;;;5081594;28;20066;-62
2022/01/08 03:46:06;;;;;;;10.18;4.85;;;;;;;;;;5075189;28;20032;-62
2022/01/08 03:48:47;;;;;;;13.07;5.10;;;;;;;;;;5058677;28;20097;-63
2022/01/08 03:51:14;;;;;;;11.43;4.28;;;;;;;;;;5059365;28;20096;-62
2022/01/08 03:53:41;;;;;;;10.77;4.88;;;;;;;;;;5074680;28;20047;-62
2022/01/08 03:56:07;;;;;;;10.65;5.45;;;;;;;;;;5080654;28;20474;-62
2022/01/08 03:58:33;;;;;;;10.38;4.00;;;;;;;;;;5080743;28;20081;-63
2022/01/08 04:00:59;;;;;;;11.82;4.20;;;;;;;;;;5099018;28;20478;-64
2022/01/08 04:03:25;;;;;;;8.18;3.63;;;;;;;;;;5058672;28;20479;-64
2022/01/08 04:05:51;;;;;;;9.63;4.82;;;;;;;;;;5075485;28;20043;-62
2022/01/08 04:08:19;;;;;;;13.57;4.32;;;;;;;;;;5079743;28;20108;-61
2022/01/08 04:10:45;;;;;;;9.60;3.70;;;;;;;;;;5051314;28;20032;-62
2022/01/08 04:13:19;;;;;;;12.65;3.65;;;;;;;;;;5074060;28;20037;-61
2022/01/08 04:15:47;;;;;;;11.95;3.33;;;;;;;;;;5072978;28;20598;-61
2022/01/08 04:18:13;;;;;;;9.77;3.38;;;;;;;;;;5075301;28;20040;-63
2022/01/08 04:23:14;;;;;;;13.07;4.37;;;;;;;;;;5075170;28;20061;-64
2022/01/08 04:25:40;;;;;;;10.18;3.58;;;;;;;;;;5092663;28;20365;-61
2022/01/08 04:28:06;;;;;;;8.73;3.53;;;;;;;;;;5094071;28;20123;-62
2022/01/08 04:30:32;;;;;;;11.15;3.63;;;;;;;;;;5080793;28;20435;-63
2022/01/08 04:32:58;;;;;;;11.95;4.30;;;;;;;;;;5098596;28;20035;-63
2022/01/08 04:35:24;;;;;;;14.68;4.60;;;;;;;;;;5076393;28;20048;-63
2022/01/08 04:37:51;;;;;;;10.13;3.75;;;;;;;;;;5080116;28;20043;-63
2022/01/08 04:40:17;;;;;;;11.93;3.85;;;;;;;;;;5099795;28;20031;-63
2022/01/08 04:42:43;;;;;;;9.55;4.15;;;;;;;;;;5080313;28;20044;-62
2022/01/08 04:45:10;;;;;;;9.75;3.42;;;;;;;;;;5067501;28;20048;-62
2022/01/08 04:47:36;;;;;;;12.65;3.88;;;;;;;;;;5081059;28;20040;-63
2022/01/08 04:50:02;;;;;;;11.60;3.50;;;;;;;;;;5078419;28;20079;-64
2022/01/08 04:52:28;;;;;;;10.15;3.40;;;;;;;;;;5061883;28;20040;-62
2022/01/08 04:54:54;;;;;;;9.15;3.75;;;;;;;;;;5081802;28;20118;-62
2022/01/08 04:57:20;;;;;;;11.07;3.80;;;;;;;;;;5087093;28;20047;-62
2022/01/08 04:59:46;;;;;;;9.15;3.70;;;;;;;;;;5100531;28;20044;-61
2022/01/08 05:02:12;;;;;;;10.98;3.78;;;;;;;;;;5101108;28;20059;-61
2022/01/08 05:04:38;;;;;;;8.32;3.22;;;;;;;;;;5098548;28;20047;-62
2022/01/08 05:07:05;;;;;;;7.82;2.22;;;;;;;;;;5077212;28;20071;-63
2022/01/08 05:09:31;;;;;;;8.93;2.72;;;;;;;;;;5044508;28;20100;-63
2022/01/08 05:11:57;;;;;;;7.57;3.10;;;;;;;;;;5099972;28;20519;-63
2022/01/08 05:14:23;;;;;;;11.48;3.13;;;;;;;;;;5084664;28;20490;-63
2022/01/08 05:16:56;;;;;;;10.80;2.53;;;;;;;;;;5095526;28;20052;-63
2022/01/08 05:19:32;;;;;;;6.97;2.03;;;;;;;;;;5085271;28;20118;-61
2022/01/08 05:21:58;;;;;;;10.52;2.25;;;;;;;;;;5078062;28;20047;-60
2022/01/08 05:24:25;;;;;;;7.63;2.20;;;;;;;;;;5063061;28;20051;-61
2022/01/08 05:26:51;;;;;;;8.10;1.95;;;;;;;;;;5095317;28;20332;-61
2022/01/08 05:29:17;;;;;;;11.23;2.25;;;;;;;;;;5083004;28;20046;-62
2022/01/08 05:31:43;;;;;;;8.77;1.48;;;;;;;;;;5098739;28;20645;-63
2022/01/08 05:34:11;;;;;;;11.43;2.28;;;;;;;;;;5076016;28;20031;-63
2022/01/08 05:36:37;;;;;;;8.15;1.90;;;;;;;;;;5101305;28;20046;-63
2022/01/08 05:39:03;;;;;;;9.48;1.70;;;;;;;;;;5079875;28;20043;-62
2022/01/08 05:41:32;;;;;;;6.45;1.60;;;;;;;;;;5050662;28;20577;-62
2022/01/08 05:43:58;;;;;;;10.05;2.15;;;;;;;;;;5078719;28;20132;-62
2022/01/08 05:46:24;;;;;;;9.57;1.90;;;;;;;;;;5079245;28;20482;-62
2022/01/08 05:48:50;;;;;;;9.23;2.35;;;;;;;;;;5094705;28;20477;-63
2022/01/08 05:51:17;;;;;;;9.27;2.20;;;;;;;;;;5079110;28;20114;-62
2022/01/08 05:53:43;;;;;;;6.63;2.00;;;;;;;;;;5077526;28;20286;-62
2022/01/08 05:56:09;;;;;;;10.60;2.40;;;;;;;;;;5077092;28;20140;-63
2022/01/08 05:58:35;;;;;;;8.75;2.25;;;;;;;;;;5076084;28;20051;-63
2022/01/08 06:01:01;;;;;;;4.35;1.63;;;;;;;;;;5064385;28;20044;-61
2022/01/08 06:03:27;;;;;;;14.45;2.28;;;;;;;;;;5078071;28;20044;-62
2022/01/08 06:05:53;;;;;;;10.30;2.63;;;;;;;;;;5083756;28;20099;-62
2022/01/08 06:08:19;;;;;;;9.60;2.58;;;;;;;;;;5062228;28;20040;-63
2022/01/08 06:10:45;;;;;;;6.90;2.47;;;;;;;;;;5096852;28;21303;-64
2022/01/08 06:13:11;;;;;;;9.68;2.22;;;;;;;;;;5076531;28;20036;-63
2022/01/08 06:15:38;;;;;;;11.73;3.35;;;;;;;;;;5096896;28;20607;-62
2022/01/08 06:18:04;;;;;;;10.38;2.50;;;;;;;;;;5098315;28;20100;-62
2022/01/08 06:20:30;;;;;;;7.97;1.58;;;;;;;;;;5078440;28;20101;-63
2022/01/08 06:22:56;;;;;;;7.13;1.52;;;;;;;;;;5078309;28;20136;-63
2022/01/08 06:25:22;;;;;;;15.07;2.70;;;;;;;;;;5078397;28;20749;-63
2022/01/08 06:27:49;;;;;;;8.57;1.90;;;;;;;;;;5096419;28;20513;-62
2022/01/08 06:30:15;;;;;;;9.23;2.10;;;;;;;;;;5084368;28;20079;-62
2022/01/08 06:32:41;;;;;;;9.23;2.00;;;;;;;;;;5072508;28;20139;-63
2022/01/08 06:35:08;;;;;;;8.57;1.88;;;;;;;;;;5076739;28;20050;-63
2022/01/08 06:37:34;;;;;;;10.75;2.75;;;;;;;;;;5076532;28;20371;-63
2022/01/08 06:40:00;;;;;;;9.77;2.10;;;;;;;;;;5082379;28;20123;-63
2022/01/08 06:42:26;;;;;;;9.32;1.80;;;;;;;;;;5083721;28;20084;-63
2022/01/08 06:44:52;;;;;;;10.95;2.28;;;;;;;;;;5075045;28;20506;-63
2022/01/08 06:47:18;;;;;;;8.18;1.90;;;;;;;;;;5077996;28;20454;-63
2022/01/08 06:49:44;;;;;;;6.43;1.67;;;;;;;;;;5093503;28;20043;-62
2022/01/08 06:52:10;;;;;;;10.60;1.83;;;;;;;;;;5075860;28;20123;-62
2022/01/08 06:54:36;;;;;;;10.32;2.40;;;;;;;;;;5078008;28;20504;-62
2022/01/08 06:57:02;;;;;;;10.40;2.25;;;;;;;;;;5097409;28;20039;-62
2022/01/08 06:59:29;;;;;;;9.35;2.33;;;;;;;;;;5077593;28;20595;-62
2022/01/08 07:01:55;;;;;;;10.48;2.67;;;;;;;;;;5076025;28;20048;-63
2022/01/08 07:04:21;;;;;;;12.80;3.28;;;;;;;;;;5073607;28;20044;-63
2022/01/08 07:06:47;;;;;;;13.55;2.90;;;;;;;;;;5077630;28;20050;-63
2022/01/08 07:09:13;;;;;;;10.63;3.38;;;;;;;;;;5061917;28;20063;-62
2022/01/08 07:11:39;;;;;;;13.80;3.42;;;;;;;;;;5084735;28;20032;-62
2022/01/08 07:14:05;;;;;;;13.18;4.07;;;;;;;;;;5063924;28;20088;-63
2022/01/08 07:16:31;;;;;;;15.18;4.88;;;;;;;;;;5095032;28;20111;-62
2022/01/08 07:18:57;;;;;;;17.67;5.97;;;;;;;;;;5075185;28;20119;-62
2022/01/08 07:21:23;;;;;;;21.05;7.00;;;;;;;;;;5096366;28;20040;-63
2022/01/08 07:23:50;;;;;;;17.98;6.88;;;;;;;;;;5062213;28;20036;-62
2022/01/08 07:26:16;;;;;;;21.45;8.77;;;;;;;;;;5082083;28;20032;-63
2022/01/08 07:28:42;;;;;;;22.60;9.88;;;;;;;;;;5071836;28;20055;-63
2022/01/08 07:31:08;;;;;;;22.98;9.45;;;;;;;;;;5075231;28;20168;-63
2022/01/08 07:33:34;;;;;;;30.10;11.77;;;;;;;;;;5066236;28;20489;-62
2022/01/08 07:36:00;;;;;;;22.98;11.43;;;;;;;;;;5062889;28;20043;-63
2022/01/08 07:38:27;;;;;;;28.15;12.38;;;;;;;;;;5077234;28;20147;-62
2022/01/08 07:40:53;;;;;;;28.02;12.68;;;;;;;;;;5073498;28;20047;-63
2022/01/08 07:43:19;;;;;;;28.23;12.63;;;;;;;;;;5078306;28;20110;-62
2022/01/08 07:45:45;;;;;;;28.00;13.00;;;;;;;;;;5100050;28;20092;-63
2022/01/08 07:48:11;;;;;;;23.60;12.80;;;;;;;;;;5060076;28;20119;-63
2022/01/08 07:50:38;;;;;;;30.80;12.80;;;;;;;;;;5081063;28;20121;-62
2022/01/08 07:53:04;;;;;;;28.42;13.65;;;;;;;;;;5074287;28;20081;-63
2022/01/08 07:55:30;;;;;;;30.90;13.30;;;;;;;;;;5077363;28;20044;-63
2022/01/08 07:57:56;;;;;;;33.83;14.48;;;;;;;;;;5073819;28;20032;-62
2022/01/08 08:00:22;;;;;;;32.80;13.85;;;;;;;;;;5077345;28;20127;-63
2022/01/08 08:02:48;;;;;;;29.83;14.20;;;;;;;;;;5094754;28;20130;-63
2022/01/08 08:05:14;;;;;;;30.20;13.98;;;;;;;;;;5092361;28;20032;-64
2022/01/08 08:07:41;;;;;;;29.48;13.93;;;;;;;;;;5064813;28;20047;-63
2022/01/08 08:10:10;;;;;;;33.83;13.15;;;;;;;;;;5056218;28;20093;-64
2022/01/08 08:12:36;;;;;;;26.48;13.50;;;;;;;;;;5072567;28;20032;-62
2022/01/08 08:15:02;;;;;;;26.08;13.10;;;;;;;;;;5077459;28;20554;-63
2022/01/08 08:17:29;;;;;;;30.60;13.23;;;;;;;;;;5065737;28;20043;-63
2022/01/08 08:19:55;;;;;;;25.60;13.27;;;;;;;;;;5082265;28;20047;-63
2022/01/08 08:22:21;;;;;;;22.73;11.98;;;;;;;;;;5061312;28;20532;-63
2022/01/08 08:24:47;;;;;;;22.75;11.52;;;;;;;;;;5078380;28;20123;-62
2022/01/08 08:27:13;;;;;;;23.98;11.65;;;;;;;;;;5077521;28;20048;-64
2022/01/08 08:29:40;;;;;;;28.40;11.82;;;;;;;;;;5098661;28;20046;-63
2022/01/08 08:32:07;;;;;;;21.27;9.50;;;;;;;;;;5055521;28;20070;-63
2022/01/08 08:34:33;;;;;;;23.05;9.80;;;;;;;;;;5092413;28;20040;-63
2022/01/08 08:37:00;;;;;;;22.20;9.85;;;;;;;;;;5097000;28;20036;-62
2022/01/08 08:39:27;;;;;;;20.20;9.70;;;;;;;;;;5065679;28;20044;-61
2022/01/08 08:41:53;;;;;;;25.35;10.23;;;;;;;;;;5079671;28;20096;-61
2022/01/08 08:44:19;;;;;;;20.15;8.75;;;;;;;;;;5071495;28;20066;-62
2022/01/08 08:46:46;;;;;;;18.20;7.70;;;;;;;;;;5106136;28;20485;-61
2022/01/08 08:49:12;;;;;;;21.95;7.70;;;;;;;;;;5089445;28;20089;-62
2022/01/08 08:51:38;;;;;;;15.88;7.20;;;;;;;;;;5107958;28;20123;-61
2022/01/08 08:54:04;;;;;;;18.23;7.30;;;;;;;;;;5089603;28;20148;-62
2022/01/08 08:56:30;;;;;;;19.58;7.35;;;;;;;;;;5072493;28;20049;-63
2022/01/08 08:58:57;;;;;;;16.50;6.47;;;;;;;;;;5107490;28;20036;-63
2022/01/08 09:01:23;;;;;;;24.20;6.15;;;;;;;;;;5072594;28;20043;-63
2022/01/08 09:03:49;;;;;;;14.88;6.32;;;;;;;;;;5107138;28;20047;-63
2022/01/08 09:06:15;;;;;;;16.52;5.88;;;;;;;;;;5089177;28;20036;-63
2022/01/08 09:08:41;;;;;;;18.48;6.15;;;;;;;;;;5088841;28;20489;-64
2022/01/08 09:11:07;;;;;;;15.43;6.20;;;;;;;;;;5089062;28;20051;-63
2022/01/08 09:13:33;;;;;;;14.32;5.85;;;;;;;;;;5088963;28;20205;-63
2022/01/08 09:16:00;;;;;;;16.02;5.03;;;;;;;;;;5074124;28;20055;-63
2022/01/08 09:18:26;;;;;;;15.35;5.78;;;;;;;;;;5092263;28;20062;-63
2022/01/08 09:20:52;;;;;;;16.92;5.38;;;;;;;;;;5075985;28;20055;-63
2022/01/08 09:23:18;;;;;;;25.27;5.68;;;;;;;;;;5093355;28;20048;-63
2022/01/08 09:25:44;;;;;;;16.63;5.75;;;;;;;;;;5075526;28;20546;-63
2022/01/08 09:28:10;;;;;;;13.23;5.30;;;;;;;;;;5075553;28;20096;-63
2022/01/08 09:30:37;;;;;;;13.18;5.13;;;;;;;;;;5075303;28;20043;-64
2022/01/08 09:33:03;;;;;;;17.92;5.35;;;;;;;;;;5092389;28;20039;-62
2022/01/08 09:35:29;;;;;;;13.85;5.13;;;;;;;;;;5076156;28;20504;-62
2022/01/08 09:37:55;;;;;;;10.25;4.45;;;;;;;;;;5091981;28;20572;-62
2022/01/08 09:40:22;;;;;;;16.52;5.32;;;;;;;;;;5092560;28;20142;-63
2022/01/08 09:42:48;;;;;;;13.82;5.72;;;;;;;;;;5092680;28;20043;-61
2022/01/08 09:45:14;;;;;;;17.65;5.35;;;;;;;;;;5091973;28;20130;-63
2022/01/08 09:47:41;;;;;;;15.18;5.40;;;;;;;;;;5091710;28;20173;-63
2022/01/08 09:50:07;;;;;;;18.70;5.68;;;;;;;;;;5075123;28;20047;-63
2022/01/08 09:52:33;;;;;;;15.63;5.10;;;;;;;;;;5075036;28;20069;-62
2022/01/08 09:55:00;;;;;;;19.05;6.25;;;;;;;;;;5092012;28;20412;-63
2022/01/08 09:57:26;;;;;;;15.77;5.55;;;;;;;;;;5092051;28;20075;-62
2022/01/08 09:59:52;;;;;;;14.98;5.57;;;;;;;;;;5074861;28;20523;-62
2022/01/08 10:02:22;;;;;;;13.10;5.28;;;;;;;;;;5110144;28;20044;-61
2022/01/08 10:04:48;;;;;;;11.63;5.03;;;;;;;;;;5092889;28;20047;-62
2022/01/08 10:07:15;;;;;;;15.05;5.07;;;;;;;;;;5075057;28;20122;-64
2022/01/08 10:09:59;;;;;;;11.63;3.85;;;;;;;;;;5091793;28;20040;-63
2022/01/08 10:12:35;;;;;;;12.73;3.97;;;;;;;;;;5091724;28;20043;-62
2022/01/08 10:17:46;;;;;;;17.10;4.93;;;;;;;;;;5094469;28;20055;-63
2022/01/08 10:20:26;;;;;;;16.02;5.13;;;;;;;;;;5091799;28;20522;-63
2022/01/08 10:23:11;;;;;;;12.13;3.78;;;;;;;;;;5092203;28;20157;-63
2022/01/08 10:25:38;;;;;;;12.75;3.88;;;;;;;;;;5110482;28;20046;-63
2022/01/08 10:28:04;;;;;;;13.38;4.07;;;;;;;;;;5073858;28;20047;-63
2022/01/08 10:30:30;;;;;;;17.10;4.45;;;;;;;;;;5075242;28;20512;-63
2022/01/08 10:33:01;;;;;;;13.18;3.70;;;;;;;;;;5092082;28;20393;-62
2022/01/08 10:35:45;;;;;;;14.20;3.95;;;;;;;;;;5091859;28;20118;-61
2022/01/08 10:38:12;;;;;;;13.38;3.80;;;;;;;;;;5092279;28;20082;-62
2022/01/08 10:40:38;;;;;;;14.98;4.07;;;;;;;;;;5074775;28;20050;-62
2022/01/08 10:43:19;;;;;;;14.77;4.30;;;;;;;;;;5091290;28;20393;-62
2022/01/08 10:45:45;;;;;;;14.90;4.10;;;;;;;;;;5091258;28;20048;-62
2022/01/08 10:48:11;;;;;;;12.00;3.70;;;;;;;;;;5109205;28;20043;-62
2022/01/08 10:50:37;;;;;;;13.43;4.07;;;;;;;;;;5074556;28;20105;-63
2022/01/08 10:53:03;;;;;;;17.85;4.13;;;;;;;;;;5057392;28;20363;-63
2022/01/08 10:55:30;;;;;;;12.45;3.63;;;;;;;;;;5074337;28;20036;-63
2022/01/08 10:57:56;;;;;;;13.43;4.00;;;;;;;;;;5073866;28;20168;-62
2022/01/08 11:00:30;;;;;;;15.10;4.60;;;;;;;;;;5090771;28;20489;-62
2022/01/08 11:02:56;;;;;;;10.68;3.70;;;;;;;;;;5090725;28;20481;-63
2022/01/08 11:05:22;;;;;;;10.07;3.90;;;;;;;;;;5073509;28;20043;-62
2022/01/08 11:07:48;;;;;;;13.82;4.25;;;;;;;;;;5109375;28;20051;-62
2022/01/08 11:10:17;;;;;;;18.48;4.70;;;;;;;;;;5091503;28;20490;-62
2022/01/08 11:12:45;;;;;;;10.57;4.05;;;;;;;;;;5091458;28;20500;-61
2022/01/08 11:17:43;;;;;;;13.48;5.97;;;;;;;;;;5089974;28;20076;-62
2022/01/08 11:20:14;;;;;;;14.70;5.13;;;;;;;;;;5090603;28;20091;-63
2022/01/08 11:22:42;;;;;;;14.73;4.75;;;;;;;;;;5090525;28;20548;-63
2022/01/08 11:25:23;;;;;;;15.60;4.30;;;;;;;;;;5073527;28;20124;-63
2022/01/08 11:28:07;;;;;;;14.68;4.95;;;;;;;;;;5090158;28;20059;-62
2022/01/08 11:30:33;;;;;;;;;;;;;;;;;;5090623;28;20417;-62
2022/01/08 11:33:04;;;;;;;13.70;4.50;;;;;;;;;;5090064;28;20036;-63
2022/01/08 11:35:32;;;;;;;13.07;4.88;;;;;;;;;;5073246;28;20058;-62
2022/01/08 11:38:02;;;;;;;12.60;4.28;;;;;;;;;;5108095;28;20049;-62
2022/01/08 11:40:29;;;;;;;14.45;4.60;;;;;;;;;;5091075;28;20047;-63
2022/01/08 11:42:55;;;;;;;15.57;6.43;;;;;;;;;;5073176;28;20049;-62
2022/01/08 11:45:25;;;;;;;10.75;3.60;;;;;;;;;;5073324;28;20078;-63
2022/01/08 11:47:53;;;;;;;8.55;4.15;;;;;;;;;;5072450;28;20047;-61
2022/01/08 11:50:20;;;;;;;14.15;4.72;;;;;;;;;;5090276;28;20400;-61
2022/01/08 11:52:47;;;;;;;11.45;4.43;;;;;;;;;;5073555;28;20040;-62
2022/01/08 11:55:34;;;;;;;10.70;4.68;;;;;;;;;;5108551;28;20045;-62
2022/01/08 11:58:20;;;;;;;12.85;5.25;;;;;;;;;;5072527;28;20507;-62
2022/01/08 12:01:03;;;;;;;15.27;5.50;;;;;;;;;;5108145;28;20096;-63
2022/01/08 12:03:31;;;;;;;10.55;4.93;;;;;;;;;;5090193;28;20140;-61
2022/01/08 12:05:58;;;;;;;13.50;5.22;;;;;;;;;;5089469;28;20043;-62
2022/01/08 12:09:00;;;;;;;13.27;5.95;;;;;;;;;;5089734;28;20066;-62
2022/01/08 12:11:31;;;;;;;11.48;6.43;;;;;;;;;;5021257;28;20141;-61
2022/01/08 12:14:08;;;;;;;16.15;6.72;;;;;;;;;;5089657;28;20051;-63
2022/01/08 12:16:35;;;;;;;18.20;7.85;;;;;;;;;;5107521;28;20060;-62
2022/01/08 12:19:02;;;;;;;11.88;5.75;;;;;;;;;;5089373;28;20055;-61
2022/01/08 12:21:36;;;;;;;16.50;8.23;;;;;;;;;;5089653;28;20508;-62
2022/01/08 12:24:29;;;;;;;16.23;7.45;;;;;;;;;;5089609;28;20083;-60
2022/01/08 12:26:57;;;;;;;14.15;8.25;;;;;;;;;;5091242;28;20044;-60
2022/01/08 12:29:32;;;;;;;14.13;7.20;;;;;;;;;;5094006;28;20058;-61
2022/01/08 12:32:17;;;;;;;14.57;7.57;;;;;;;;;;5077820;28;20044;-62
2022/01/08 12:34:47;;;;;;;17.33;8.20;;;;;;;;;;5074265;28;20039;-63
2022/01/08 12:37:13;;;;;;;13.57;8.10;;;;;;;;;;5061380;28;20146;-61
2022/01/08 12:39:43;;;;;;;14.27;7.97;;;;;;;;;;5090916;28;20157;-61
2022/01/08 12:42:21;;;;;;;20.48;9.00;;;;;;;;;;5092727;28;20039;-60
2022/01/08 12:44:56;;;;;;;18.73;9.20;;;;;;;;;;5077247;28;20097;-61
2022/01/08 12:47:40;;;;;;;16.95;8.95;;;;;;;;;;5093626;28;20521;-60
2022/01/08 12:50:24;;;;;;;17.98;9.02;;;;;;;;;;5099223;28;20032;-62
2022/01/08 12:53:09;;;;;;;14.15;8.30;;;;;;;;;;5075109;28;20077;-62
2022/01/08 12:55:54;;;;;;;15.63;7.00;;;;;;;;;;5078835;28;20113;-62
2022/01/08 12:58:21;;;;;;;19.08;9.65;;;;;;;;;;5099206;28;20049;-61
2022/01/08 13:00:56;;;;;;;21.50;9.32;;;;;;;;;;5081301;28;20047;-62
2022/01/08 13:03:23;;;;;;;19.05;9.57;;;;;;;;;;5099392;28;20120;-62
2022/01/08 13:05:49;;;;;;;20.38;10.88;;;;;;;;;;5101610;28;20506;-62
2022/01/08 13:08:23;;;;;;;17.27;8.68;;;;;;;;;;5058992;28;20040;-61
2022/01/08 13:10:56;;;;;;;20.98;11.52;;;;;;;;;;5075378;28;20048;-62
2022/01/08 13:13:23;;;;;;;16.60;10.18;;;;;;;;;;5099177;28;20036;-62
2022/01/08 13:15:49;;;;;;;22.58;11.70;;;;;;;;;;5050764;28;20136;-61
2022/01/08 13:18:19;;;;;;;20.80;11.85;;;;;;;;;;5073368;28;20131;-62
2022/01/08 13:20:46;;;;;;;19.33;10.63;;;;;;;;;;5078721;28;20575;-62
2022/01/08 13:23:15;;;;;;;17.67;10.80;;;;;;;;;;5081443;28;20043;-62
2022/01/08 13:25:41;;;;;;;21.70;12.93;;;;;;;;;;5075537;28;20043;-64
2022/01/08 13:28:07;;;;;;;14.90;11.23;;;;;;;;;;5062492;28;20193;-62
2022/01/08 13:30:36;;;;;;;22.42;14.02;;;;;;;;;;5082329;28;20048;-61
2022/01/08 13:33:04;;;;;;;21.88;14.15;;;;;;;;;;5074803;28;20044;-61
2022/01/08 13:35:30;;;;;;;21.80;16.30;;;;;;;;;;5069813;28;20070;-61
2022/01/08 13:37:57;;;;;;;21.20;15.15;;;;;;;;;;5085346;28;20042;-61
2022/01/08 13:40:26;;;;;;;22.75;13.30;;;;;;;;;;5084166;28;20044;-62
2022/01/08 13:42:53;;;;;;;22.52;16.60;;;;;;;;;;5082074;28;20029;-62
2022/01/08 13:45:22;;;;;;;23.83;15.90;;;;;;;;;;5084477;28;20115;-60
2022/01/08 13:47:50;;;;;;;19.25;14.30;;;;;;;;;;5085784;28;20062;-62
2022/01/08 13:50:26;;;;;;;27.00;17.33;;;;;;;;;;5087661;28;20097;-62
2022/01/08 13:52:58;;;;;;;23.75;16.98;;;;;;;;;;5088006;28;20044;-63
2022/01/08 13:55:24;;;;;;;23.05;16.95;;;;;;;;;;5089712;28;20040;-63
2022/01/08 13:58:10;;;;;;;23.10;14.55;;;;;;;;;;5089353;28;20452;-62
2022/01/08 14:00:41;;;;;;;27.45;18.80;;;;;;;;;;5089170;28;20035;-63
2022/01/08 14:03:21;;;;;;;23.48;18.33;;;;;;;;;;5088201;28;20043;-63
2022/01/08 14:05:48;;;;;;;20.40;15.90;;;;;;;;;;5088229;28;20122;-63
2022/01/08 14:08:14;;;;;;;21.20;17.02;;;;;;;;;;5089443;28;20128;-62
2022/01/08 14:10:42;;;;;;;23.88;17.98;;;;;;;;;;5087526;28;20040;-63
2022/01/08 14:13:10;;;;;;;26.00;21.05;;;;;;;;;;5083999;28;20039;-62
2022/01/08 14:15:36;;;;;;;30.33;22.85;;;;;;;;;;5073826;28;20556;-62
2022/01/08 14:18:13;;;;;;;30.50;23.60;;;;;;;;;;5076405;28;20058;-63
2022/01/08 14:20:39;;;;;;;28.90;19.17;;;;;;;;;;5074580;28;20068;-62
2022/01/08 14:23:14;;;;;;;31.70;23.55;;;;;;;;;;5076670;28;20478;-62
2022/01/08 14:25:41;;;;;;;27.60;21.77;;;;;;;;;;5077924;28;20051;-62
2022/01/08 14:28:22;;;;;;;25.25;19.35;;;;;;;;;;5074579;28;20098;-62
2022/01/08 14:30:48;;;;;;;25.73;20.65;;;;;;;;;;5067515;28;20052;-63
2022/01/08 14:33:14;;;;;;;29.70;22.10;;;;;;;;;;5067085;28;20039;-62
2022/01/08 14:35:40;;;;;;;28.90;20.85;;;;;;;;;;5067998;28;20356;-62
2022/01/08 14:38:07;;;;;;;32.90;24.60;;;;;;;;;;5050417;28;20043;-63
2022/01/08 14:40:33;;;;;;;27.45;20.63;;;;;;;;;;5050988;28;20040;-62
2022/01/08 14:43:02;;;;;;;33.10;22.50;;;;;;;;;;5069508;28;20044;-61
2022/01/08 14:45:28;;;;;;;31.58;24.48;;;;;;;;;;5081991;28;20393;-62
2022/01/08 14:47:58;;;;;;;34.50;25.52;;;;;;;;;;5084811;28;20695;-62
2022/01/08 14:50:29;;;;;;;32.60;23.02;;;;;;;;;;5073697;28;20505;-62
2022/01/08 14:52:55;;;;;;;34.35;24.02;;;;;;;;;;5074638;28;20134;-61
2022/01/08 14:55:33;;;;;;;36.63;26.35;;;;;;;;;;5076662;28;20510;-61
2022/01/08 14:58:00;;;;;;;32.92;24.05;;;;;;;;;;5078622;28;20097;-62